Terminal Aerodrome Forecast
Issued by NWS Rapid City, SD

Home | Current Version | Previous Version | Graphics & Text | Print | Product List | Glossary On
Versions: 1 2 3 4 5 6 7 8 9 10 11 12 13 14 15 16
000
FTUS43 KUNR 232100 AAA
TAFRAP
TAF AMD
KRAP 232107Z 2321/2418 12015KT P6SM SKC
     FM232300 13012KT P6SM SCT080
     FM240800 15007KT P6SM SCT150=

USA.gov is the U.S. government's official web portal to all federal, state and local government web resources and services.